Time;durP1;ratioP1;P1;durP2;ratioP2;P2;SDS_P1;SDS_P2;PMS_P1;PMS_P2;Temp;Humidity;BMP_temperature;BMP_pressure;BME280_temperature;BME280_humidity;BME280_pressure;Samples;Min_cycle;Max_cycle;Signal;HPM_P1;HPM_P2
2023/03/01 00:01:26;;;;;;;8.68;6.38;;;;;;;1.49;34.77;102600.91;5047880;28;20048;-76
2023/03/01 00:03:55;;;;;;;8.77;6.00;;;;;;;1.48;34.64;102601.81;5040692;28;20574;-76
2023/03/01 00:06:23;;;;;;;7.53;5.80;;;;;;;1.48;34.64;102607.22;5050514;28;20040;-76
2023/03/01 00:08:52;;;;;;;9.13;5.60;;;;;;;1.44;34.53;102597.41;5035874;28;20041;-76
2023/03/01 00:11:22;;;;;;;8.32;5.47;;;;;;;1.46;34.88;102600.97;5048492;28;20423;-76
2023/03/01 00:13:55;;;;;;;8.35;6.22;;;;;;;1.44;34.88;102586.59;5041581;28;20068;-76
2023/03/01 00:16:25;;;;;;;8.07;5.68;;;;;;;1.42;34.59;102592.97;5033652;28;20072;-76
2023/03/01 00:18:53;;;;;;;8.15;5.40;;;;;;;1.43;34.56;102590.22;5054584;28;20488;-76
2023/03/01 00:21:21;;;;;;;7.50;5.80;;;;;;;1.42;34.76;102590.28;5052721;28;20041;-76
2023/03/01 00:23:50;;;;;;;7.68;5.25;;;;;;;1.42;34.99;102595.69;5064733;28;20496;-76
2023/03/01 00:26:19;;;;;;;8.25;5.50;;;;;;;1.41;34.52;102600.19;5055896;28;20132;-76
2023/03/01 00:28:52;;;;;;;8.52;5.05;;;;;;;1.40;34.73;102592.13;5051074;28;20041;-76
2023/03/01 00:31:30;;;;;;;8.65;5.30;;;;;;;1.38;35.00;102588.56;5049245;28;20522;-76
2023/03/01 00:34:01;;;;;;;5.97;4.10;;;;;;;1.31;34.88;102593.19;5050727;28;20060;-76
2023/03/01 00:36:31;;;;;;;7.80;5.25;;;;;;;1.35;34.95;102589.50;5033210;28;20068;-76
2023/03/01 00:39:00;;;;;;;8.40;5.75;;;;;;;1.34;34.77;102589.56;5042009;28;20045;-76
2023/03/01 00:41:28;;;;;;;8.82;5.35;;;;;;;1.34;34.78;102589.56;5044621;28;20037;-76
2023/03/01 00:43:56;;;;;;;6.22;4.72;;;;;;;1.35;34.65;102586.81;5067510;28;20045;-76
2023/03/01 00:46:25;;;;;;;8.02;5.30;;;;;;;1.36;34.99;102583.19;5043860;28;20526;-76
2023/03/01 00:48:55;;;;;;;7.38;4.60;;;;;;;1.36;34.88;102566.13;5055760;28;20045;-76
2023/03/01 00:51:26;;;;;;;8.63;5.53;;;;;;;1.37;34.77;102570.59;5049102;28;20040;-76
2023/03/01 00:53:54;;;;;;;8.57;5.60;;;;;;;1.36;34.85;102567.00;5030827;28;20060;-76
2023/03/01 00:56:22;;;;;;;8.55;5.28;;;;;;;1.36;34.75;102566.13;5044630;28;20040;-76
2023/03/01 00:58:50;;;;;;;8.52;5.07;;;;;;;1.36;34.76;102566.13;5064118;28;20037;-76
2023/03/01 01:01:20;;;;;;;7.43;4.82;;;;;;;1.37;34.70;102574.19;5036917;28;20099;-76
2023/03/01 01:03:51;;;;;;;7.78;4.78;;;;;;;1.38;34.93;102570.56;5029399;28;20072;-76
2023/03/01 01:06:22;;;;;;;8.45;4.80;;;;;;;1.40;35.18;102565.13;5047842;28;20056;-76
2023/03/01 01:08:51;;;;;;;7.63;4.95;;;;;;;1.40;34.93;102570.53;5035082;28;20622;-76
2023/03/01 01:11:20;;;;;;;7.10;5.15;;;;;;;1.40;35.01;102570.53;5042697;28;20062;-76
2023/03/01 01:13:49;;;;;;;8.07;5.13;;;;;;;1.41;35.17;102566.91;5056693;28;20037;-77
2023/03/01 01:16:19;;;;;;;6.95;4.93;;;;;;;1.43;35.02;102571.34;5040530;28;20554;-76
2023/03/01 01:18:47;;;;;;;7.05;4.60;;;;;;;1.44;34.81;102564.13;5038660;28;20098;-76
2023/03/01 01:21:22;;;;;;;8.40;5.47;;;;;;;1.44;35.05;102556.94;5034545;28;20056;-76
2023/03/01 01:23:53;;;;;;;7.70;5.18;;;;;;;1.44;35.05;102545.25;5044717;28;20052;-76
2023/03/01 01:26:24;;;;;;;7.88;5.32;;;;;;;1.44;34.91;102548.84;5032628;28;20045;-76
2023/03/01 01:28:53;;;;;;;8.43;5.20;;;;;;;1.45;35.11;102544.31;5038913;28;20049;-76
2023/03/01 01:31:23;;;;;;;6.80;4.95;;;;;;;1.42;34.91;102531.78;5029763;28;20424;-76
2023/03/01 01:33:51;;;;;;;8.05;5.47;;;;;;;1.40;34.91;102525.56;5035225;28;20047;-76
2023/03/01 01:36:19;;;;;;;9.63;5.38;;;;;;;1.40;35.04;102527.38;5029714;28;20044;-76
2023/03/01 01:38:47;;;;;;;8.90;5.93;;;;;;;1.39;35.00;102525.59;5054793;28;20112;-76
2023/03/01 01:41:18;;;;;;;7.03;5.45;;;;;;;1.37;35.02;102522.94;5052134;28;20420;-76
2023/03/01 01:43:48;;;;;;;8.52;5.50;;;;;;;1.36;34.79;102526.53;5042703;28;20511;-77
2023/03/01 01:46:29;;;;;;;7.30;5.45;;;;;;;1.36;35.48;102523.84;5049686;28;20139;-76
2023/03/01 01:49:01;;;;;;;8.68;5.60;;;;;;;1.33;35.15;102518.53;5051749;28;20033;-77
2023/03/01 01:51:38;;;;;;;8.50;5.20;;;;;;;1.32;35.28;102507.78;5034025;28;20416;-77
2023/03/01 01:54:11;;;;;;;7.97;5.25;;;;;;;1.31;35.23;102496.09;5054945;28;20106;-77
2023/03/01 01:56:44;;;;;;;7.85;5.00;;;;;;;1.29;35.62;102489.84;5048863;28;20040;-77
2023/03/01 01:59:13;;;;;;;6.65;5.10;;;;;;;1.28;35.12;102489.88;5037744;28;20440;-76
2023/03/01 02:01:41;;;;;;;8.82;5.30;;;;;;;1.28;34.92;102487.19;5045385;28;20078;-76
2023/03/01 02:04:08;;;;;;;8.65;5.63;;;;;;;1.27;35.12;102482.69;5053095;28;20061;-77
2023/03/01 02:06:40;;;;;;;8.18;5.40;;;;;;;1.26;35.07;102487.22;5033757;28;20370;-77
2023/03/01 02:09:14;;;;;;;9.30;5.57;;;;;;;1.25;35.38;102496.25;5037886;28;20381;-76
2023/03/01 02:11:45;;;;;;;8.52;5.72;;;;;;;1.24;35.46;102493.56;5056917;28;20484;-77
2023/03/01 02:14:15;;;;;;;7.93;5.35;;;;;;;1.19;35.35;102493.66;5045179;28;20055;-77
2023/03/01 02:16:43;;;;;;;9.30;6.03;;;;;;;1.20;35.24;102492.75;5059524;28;20056;-77
2023/03/01 02:19:20;;;;;;;9.65;5.93;;;;;;;1.20;35.21;102492.75;5058982;28;20040;-76
2023/03/01 02:21:59;;;;;;;6.60;5.13;;;;;;;1.19;35.71;102498.16;5035697;28;20143;-76
2023/03/01 02:24:36;;;;;;;8.93;5.30;;;;;;;1.18;35.65;102499.97;5041764;28;20516;-77
2023/03/01 02:27:06;;;;;;;7.63;5.38;;;;;;;1.12;35.46;102489.34;5040351;28;20115;-77
2023/03/01 02:29:36;;;;;;;8.30;5.43;;;;;;;1.15;35.29;102499.19;5064484;28;20504;-77
2023/03/01 02:32:04;;;;;;;7.40;5.22;;;;;;;1.13;34.99;102509.09;5051759;28;20045;-77
2023/03/01 02:34:33;;;;;;;8.27;5.78;;;;;;;1.10;35.09;102507.34;5041463;28;20041;-77
2023/03/01 02:37:04;;;;;;;7.80;5.32;;;;;;;1.06;35.13;102501.16;5031346;28;20463;-76
2023/03/01 02:39:41;;;;;;;8.02;6.00;;;;;;;1.07;35.72;102493.97;5046253;28;20049;-77
2023/03/01 02:42:13;;;;;;;9.15;5.68;;;;;;;1.04;35.43;102500.28;5048751;28;20082;-77
2023/03/01 02:44:43;;;;;;;8.82;5.07;;;;;;;1.03;35.17;102498.50;5046078;28;20060;-76
2023/03/01 02:47:10;;;;;;;7.50;4.97;;;;;;;1.01;35.17;102486.88;5043651;28;20097;-77
2023/03/01 02:49:38;;;;;;;8.05;5.40;;;;;;;1.01;35.43;102486.88;5042239;28;20128;-77
2023/03/01 02:52:24;;;;;;;8.07;5.38;;;;;;;1.03;36.04;102485.03;5050478;28;20439;-77
2023/03/01 02:54:59;;;;;;;7.68;5.72;;;;;;;1.01;35.63;102496.78;5064358;28;20048;-76
2023/03/01 02:57:29;;;;;;;7.65;5.15;;;;;;;1.00;35.55;102485.13;5050711;28;20060;-77
2023/03/01 03:00:06;;;;;;;7.75;5.30;;;;;;;1.00;35.53;102479.72;5035296;28;20045;-76
2023/03/01 03:02:38;;;;;;;7.53;5.53;;;;;;;0.98;35.37;102477.97;5032353;28;20041;-77
2023/03/01 03:05:22;;;;;;;7.55;5.47;;;;;;;0.97;35.66;102484.28;5033635;28;20078;-77
2023/03/01 03:07:55;;;;;;;7.78;5.18;;;;;;;0.96;35.52;102477.13;5030585;28;20045;-76
2023/03/01 03:10:25;;;;;;;9.05;5.32;;;;;;;0.96;35.32;102486.09;5035608;28;20535;-77
2023/03/01 03:12:56;;;;;;;7.82;5.85;;;;;;;0.95;35.48;102481.63;5039356;28;20099;-77
2023/03/01 03:15:28;;;;;;;8.00;5.68;;;;;;;0.93;35.36;102480.75;5036225;28;20059;-77
2023/03/01 03:17:58;;;;;;;7.80;5.75;;;;;;;0.89;35.61;102478.19;5031428;28;20041;-77
2023/03/01 03:20:29;;;;;;;10.38;6.65;;;;;;;0.89;35.55;102478.19;5031510;28;20049;-77
2023/03/01 03:22:58;;;;;;;8.02;5.78;;;;;;;0.86;35.75;102475.50;5031698;28;20348;-77
2023/03/01 03:25:28;;;;;;;9.30;6.00;;;;;;;0.86;35.65;102480.88;5005709;28;20394;-77
2023/03/01 03:27:57;;;;;;;7.68;5.63;;;;;;;0.83;35.46;102465.69;5051395;28;20037;-77
2023/03/01 03:30:30;;;;;;;8.02;5.40;;;;;;;0.83;35.95;102467.50;5053478;28;20501;-76
2023/03/01 03:32:59;;;;;;;7.65;5.35;;;;;;;0.79;35.53;102461.28;5049206;28;20056;-76
2023/03/01 03:35:30;;;;;;;7.35;5.30;;;;;;;0.79;35.62;102469.34;5049246;28;20132;-77
2023/03/01 03:38:02;;;;;;;7.28;5.13;;;;;;;0.79;35.80;102457.69;5064385;28;20152;-77
2023/03/01 03:40:32;;;;;;;7.32;5.20;;;;;;;0.76;35.78;102460.47;5062478;28;21118;-77
2023/03/01 03:43:00;;;;;;;8.65;5.63;;;;;;;0.75;35.51;102451.50;5036076;28;20045;-77
2023/03/01 03:45:29;;;;;;;7.53;5.35;;;;;;;0.76;35.76;102465.88;5037810;28;20471;-77
2023/03/01 03:47:57;;;;;;;8.63;5.80;;;;;;;0.75;35.46;102459.59;5049189;28;20053;-77
2023/03/01 03:50:25;;;;;;;8.27;5.65;;;;;;;0.74;35.80;102455.09;5045803;28;20556;-77
2023/03/01 03:52:53;;;;;;;7.38;5.30;;;;;;;0.72;35.56;102451.56;5049420;28;20508;-77
2023/03/01 03:55:21;;;;;;;9.13;5.88;;;;;;;0.72;35.56;102456.94;5040436;28;20451;-77
2023/03/01 03:57:51;;;;;;;7.97;5.75;;;;;;;0.71;35.82;102450.66;5051572;28;20043;-77
2023/03/01 04:00:21;;;;;;;8.80;6.55;;;;;;;0.69;35.81;102452.50;5050220;28;20044;-77
2023/03/01 04:02:56;;;;;;;8.23;5.90;;;;;;;0.68;35.92;102453.41;5059273;28;20456;-77
2023/03/01 04:05:24;;;;;;;8.48;5.47;;;;;;;0.66;35.74;102444.50;5049157;28;20049;-77
2023/03/01 04:08:00;;;;;;;8.70;5.80;;;;;;;0.64;35.68;102448.13;5044322;28;20041;-76
2023/03/01 04:10:30;;;;;;;8.50;5.60;;;;;;;0.63;35.86;102447.25;5041887;28;20095;-77
2023/03/01 04:12:58;;;;;;;8.00;5.63;;;;;;;0.62;35.99;102440.06;5033849;28;20053;-76
2023/03/01 04:15:27;;;;;;;9.63;5.90;;;;;;;0.63;35.76;102435.56;5009654;28;20041;-78
2023/03/01 04:17:58;;;;;;;11.52;6.18;;;;;;;0.59;35.74;102432.06;5036855;28;20049;-78
2023/03/01 04:20:29;;;;;;;9.70;5.85;;;;;;;0.59;35.81;102431.19;5037065;28;20068;-78
2023/03/01 04:23:10;;;;;;;8.85;6.00;;;;;;;0.58;36.21;102429.41;5062042;28;20045;-78
2023/03/01 04:25:39;;;;;;;9.10;6.03;;;;;;;0.54;35.90;102427.69;5052329;28;20346;-78
2023/03/01 04:28:07;;;;;;;8.85;5.88;;;;;;;0.53;35.88;102432.19;5064473;28;20040;-78
2023/03/01 04:30:36;;;;;;;8.20;5.95;;;;;;;0.50;35.63;102426.88;5048642;28;20504;-77
2023/03/01 04:33:07;;;;;;;9.30;6.25;;;;;;;0.51;36.09;102425.06;5055617;28;20033;-77
2023/03/01 04:35:36;;;;;;;8.68;5.82;;;;;;;0.49;35.94;102426.91;5052370;28;20103;-77
2023/03/01 04:38:05;;;;;;;10.95;6.13;;;;;;;0.47;35.85;102426.03;5043420;28;20476;-77
2023/03/01 04:40:33;;;;;;;8.13;5.78;;;;;;;0.45;35.73;102426.06;5045889;28;20076;-77
2023/03/01 04:43:02;;;;;;;9.15;6.13;;;;;;;0.44;36.02;102435.06;5040787;28;20143;-77
2023/03/01 04:45:30;;;;;;;9.20;6.00;;;;;;;0.42;36.06;102425.25;5052201;28;20292;-76
2023/03/01 04:47:58;;;;;;;11.02;6.38;;;;;;;0.40;35.77;102430.66;5041589;28;20484;-77
2023/03/01 04:50:27;;;;;;;10.10;6.22;;;;;;;0.41;35.93;102423.47;5049330;28;20458;-76
2023/03/01 04:52:58;;;;;;;8.75;6.20;;;;;;;0.38;36.08;102415.44;5050743;28;20053;-76
2023/03/01 04:55:27;;;;;;;8.15;5.93;;;;;;;0.36;35.84;102424.44;5043744;28;20067;-76
2023/03/01 04:57:55;;;;;;;9.20;5.95;;;;;;;0.36;36.06;102415.47;5038755;28;20177;-76
2023/03/01 05:00:25;;;;;;;9.50;6.40;;;;;;;0.36;35.99;102412.78;5044156;28;20420;-77
2023/03/01 05:02:55;;;;;;;10.63;7.13;;;;;;;0.32;36.27;102416.47;5042693;28;20394;-77
2023/03/01 05:05:26;;;;;;;8.95;6.35;;;;;;;0.31;36.14;102420.97;5036089;28;20045;-77
2023/03/01 05:07:58;;;;;;;11.05;7.28;;;;;;;0.27;36.30;102416.56;5031802;28;20049;-77
2023/03/01 05:10:28;;;;;;;12.15;7.50;;;;;;;0.25;36.18;102422.91;5049228;28;20129;-77
2023/03/01 05:12:57;;;;;;;13.82;7.57;;;;;;;0.23;36.22;102406.78;5033478;28;20049;-77
2023/03/01 05:15:25;;;;;;;9.48;6.55;;;;;;;0.23;36.02;102405.88;5031578;28;20060;-77
2023/03/01 05:17:54;;;;;;;10.68;7.55;;;;;;;0.21;36.26;102411.28;5031824;28;20040;-77
2023/03/01 05:20:23;;;;;;;8.98;7.00;;;;;;;0.16;36.29;102406.94;5030708;28;20049;-77
2023/03/01 05:22:53;;;;;;;11.15;7.35;;;;;;;0.12;36.63;102421.34;5032717;28;20500;-76
2023/03/01 05:25:22;;;;;;;12.82;8.25;;;;;;;0.08;36.41;102419.66;5031190;28;20516;-75
2023/03/01 05:27:50;;;;;;;11.57;7.88;;;;;;;0.03;36.59;102416.13;5046967;28;20049;-77
2023/03/01 05:30:19;;;;;;;13.50;8.73;;;;;;;-0.04;36.67;102410.88;5049002;28;20052;-76
2023/03/01 05:32:55;;;;;;;12.73;8.30;;;;;;;-0.06;36.91;102415.41;5032191;28;20045;-76
2023/03/01 05:35:23;;;;;;;10.80;7.97;;;;;;;-0.11;36.58;102409.22;5035456;28;20100;-77
2023/03/01 05:37:52;;;;;;;11.85;7.90;;;;;;;-0.11;36.90;102406.53;5049406;28;20041;-77
2023/03/01 05:40:24;;;;;;;11.75;7.95;;;;;;;-0.12;36.68;102407.44;5047412;28;20037;-77
2023/03/01 05:42:54;;;;;;;11.60;8.05;;;;;;;-0.15;37.21;102412.91;5048204;28;20572;-76
2023/03/01 05:45:23;;;;;;;11.48;7.47;;;;;;;-0.16;36.70;102404.84;5039815;28;20072;-77
2023/03/01 05:47:52;;;;;;;12.35;8.05;;;;;;;-0.22;37.21;102399.56;5032233;28;20103;-77
2023/03/01 05:50:21;;;;;;;13.43;8.57;;;;;;;-0.23;37.27;102401.41;5048030;28;20086;-76
2023/03/01 05:52:52;;;;;;;12.02;8.70;;;;;;;-0.23;36.99;102408.56;5043494;28;20110;-78
2023/03/01 05:55:22;;;;;;;11.10;8.00;;;;;;;-0.24;36.93;102393.34;5050556;28;20092;-77
2023/03/01 05:57:50;;;;;;;11.82;8.32;;;;;;;-0.25;37.37;102403.22;5051689;28;20098;-77
2023/03/01 06:00:21;;;;;;;10.15;7.70;;;;;;;-0.26;37.28;102397.84;5058729;28;20435;-77
2023/03/01 06:02:51;;;;;;;13.63;8.47;;;;;;;-0.29;37.17;102401.47;5051837;28;20083;-77
2023/03/01 06:05:19;;;;;;;10.57;8.05;;;;;;;-0.29;37.27;102400.59;5055069;28;20078;-78
2023/03/01 06:07:47;;;;;;;12.40;8.32;;;;;;;-0.28;37.44;102400.56;5038983;28;20064;-78
2023/03/01 06:10:15;;;;;;;12.30;8.50;;;;;;;-0.32;37.35;102406.94;5034457;28;20500;-78
2023/03/01 06:12:45;;;;;;;15.18;8.75;;;;;;;-0.30;37.27;102404.19;5050570;28;20449;-77
2023/03/01 06:15:15;;;;;;;14.20;8.90;;;;;;;-0.34;37.61;102406.06;5048393;28;20173;-77
2023/03/01 06:17:45;;;;;;;12.82;8.45;;;;;;;-0.32;37.43;102403.38;5049658;28;20045;-77
2023/03/01 06:20:16;;;;;;;12.27;8.40;;;;;;;-0.32;37.39;102400.66;5031787;28;20049;-77
2023/03/01 06:22:44;;;;;;;11.93;7.90;;;;;;;-0.32;37.26;102401.56;5039922;28;20057;-76
2023/03/01 06:25:14;;;;;;;11.32;7.75;;;;;;;-0.31;37.07;102403.34;5051718;28;20048;-76
2023/03/01 06:27:42;;;;;;;12.75;8.18;;;;;;;-0.32;37.26;102406.06;5060763;28;20524;-76
2023/03/01 06:30:14;;;;;;;10.85;7.60;;;;;;;-0.29;37.42;102404.16;5048516;28;20053;-77
2023/03/01 06:32:42;;;;;;;11.48;8.02;;;;;;;-0.31;37.38;102392.56;5026428;28;20393;-76
2023/03/01 06:35:11;;;;;;;11.30;7.75;;;;;;;-0.27;37.48;102398.78;5042889;28;20056;-76
2023/03/01 06:37:40;;;;;;;10.75;7.10;;;;;;;-0.26;37.28;102396.06;5043600;28;20397;-77
2023/03/01 06:40:11;;;;;;;11.30;7.90;;;;;;;-0.24;37.25;102394.25;5038570;28;20044;-76
2023/03/01 06:42:40;;;;;;;10.95;6.97;;;;;;;-0.21;37.48;102398.66;5043695;28;20033;-76
2023/03/01 06:45:10;;;;;;;12.55;8.45;;;;;;;-0.23;37.38;102398.72;5030508;28;20052;-76
2023/03/01 06:47:39;;;;;;;11.57;7.97;;;;;;;-0.19;37.33;102397.72;5043473;28;20037;-76
2023/03/01 06:50:08;;;;;;;10.95;7.53;;;;;;;-0.17;37.22;102400.38;5039589;28;20356;-76
2023/03/01 06:52:36;;;;;;;11.65;7.35;;;;;;;-0.16;37.38;102396.78;5035781;28;20245;-76
2023/03/01 06:55:05;;;;;;;11.50;7.75;;;;;;;-0.15;37.47;102394.06;5054339;28;20111;-76
2023/03/01 06:57:33;;;;;;;12.52;7.80;;;;;;;-0.10;38.16;102405.63;5048842;28;20144;-76
2023/03/01 07:00:01;;;;;;;12.98;8.60;;;;;;;-0.04;38.27;102394.72;5052374;28;20044;-76
2023/03/01 07:02:29;;;;;;;13.70;9.07;;;;;;;0.08;38.89;102398.13;5052437;28;20033;-77
2023/03/01 07:04:58;;;;;;;12.15;8.25;;;;;;;0.20;39.26;102392.47;5043782;28;20124;-77
2023/03/01 07:07:26;;;;;;;11.82;8.70;;;;;;;0.33;38.86;102386.81;5041527;28;20045;-77
2023/03/01 07:09:54;;;;;;;13.82;9.02;;;;;;;0.48;39.28;102384.72;5042076;28;20041;-77
2023/03/01 07:12:22;;;;;;;13.27;9.20;;;;;;;0.63;39.09;102396.06;5044726;28;20048;-76
2023/03/01 07:14:49;;;;;;;12.98;9.23;;;;;;;0.80;38.90;102389.41;5041579;28;20048;-76
2023/03/01 07:17:18;;;;;;;15.50;9.60;;;;;;;0.97;38.99;102385.44;5071577;28;20052;-77
2023/03/01 07:19:46;;;;;;;14.00;8.93;;;;;;;1.16;38.53;102387.69;5041753;28;20584;-77
2023/03/01 07:22:15;;;;;;;15.13;9.18;;;;;;;1.36;38.46;102386.28;5055112;28;20548;-76
2023/03/01 07:24:43;;;;;;;13.63;9.23;;;;;;;1.55;38.66;102381.31;5051061;28;20044;-76
2023/03/01 07:27:13;;;;;;;11.93;8.82;;;;;;;1.73;38.20;102377.25;5053398;28;20071;-76
2023/03/01 07:29:40;;;;;;;12.43;8.60;;;;;;;1.92;38.26;102372.25;5037505;28;20045;-75
2023/03/01 07:32:12;;;;;;;11.88;9.15;;;;;;;2.10;37.60;102369.88;5046347;28;20350;-76
2023/03/01 07:34:40;;;;;;;13.43;9.50;;;;;;;2.28;37.99;102373.00;5045992;28;20383;-76
2023/03/01 07:37:08;;;;;;;12.57;8.65;;;;;;;2.43;37.63;102369.84;5042561;28;20048;-76
2023/03/01 07:39:37;;;;;;;11.50;8.90;;;;;;;2.58;37.28;102370.25;5046863;28;20076;-76
2023/03/01 07:42:05;;;;;;;12.63;9.02;;;;;;;2.72;37.34;102379.78;5034671;28;20045;-76
2023/03/01 07:44:34;;;;;;;13.45;8.95;;;;;;;2.86;36.91;102370.31;5035614;28;20188;-76
2023/03/01 07:47:02;;;;;;;13.85;9.60;;;;;;;2.98;36.90;102385.28;5054687;28;20566;-76
2023/03/01 07:49:29;;;;;;;13.45;10.18;;;;;;;3.10;36.62;102378.56;5050707;28;20053;-76
2023/03/01 07:51:57;;;;;;;12.73;9.77;;;;;;;3.18;36.32;102377.38;5051727;28;20080;-76
2023/03/01 07:54:26;;;;;;;13.02;9.48;;;;;;;3.31;36.26;102378.81;5060093;28;20037;-76
2023/03/01 07:56:55;;;;;;;12.82;9.02;;;;;;;3.43;36.09;102388.31;5058457;28;20194;-75
2023/03/01 07:59:23;;;;;;;10.95;8.80;;;;;;;3.56;35.99;102388.81;5058281;28;20048;-75
2023/03/01 08:01:51;;;;;;;12.23;8.30;;;;;;;3.68;35.83;102385.66;5045411;28;20044;-75
2023/03/01 08:04:19;;;;;;;13.48;8.63;;;;;;;3.81;35.66;102389.72;5053503;28;20037;-75
2023/03/01 08:06:47;;;;;;;11.15;8.05;;;;;;;3.93;35.17;102382.97;5031261;28;20108;-75
2023/03/01 08:09:14;;;;;;;10.30;7.72;;;;;;;4.02;34.76;102394.38;5054228;28;20123;-75
2023/03/01 08:11:42;;;;;;;10.80;7.70;;;;;;;4.07;34.50;102378.81;5033828;28;20053;-75
2023/03/01 08:14:11;;;;;;;14.57;8.77;;;;;;;4.12;34.18;102375.97;5046544;28;20044;-75
2023/03/01 08:16:39;;;;;;;11.77;8.43;;;;;;;4.11;33.88;102375.06;5036344;28;20064;-75
2023/03/01 08:19:08;;;;;;;11.68;8.40;;;;;;;4.10;34.00;102372.41;5052277;28;20053;-75
2023/03/01 08:21:37;;;;;;;12.90;8.23;;;;;;;4.08;33.88;102377.88;5035367;28;20246;-75
2023/03/01 08:24:06;;;;;;;12.70;8.18;;;;;;;4.08;33.71;102377.00;5050606;28;20072;-75
2023/03/01 08:26:35;;;;;;;14.07;9.02;;;;;;;4.03;33.81;102373.59;5032915;28;20094;-75
2023/03/01 08:29:04;;;;;;;14.07;9.07;;;;;;;4.00;33.80;102376.41;5037047;28;20124;-75
2023/03/01 08:31:35;;;;;;;12.77;9.38;;;;;;;3.90;33.22;102373.13;5055943;28;20049;-75
2023/03/01 08:34:06;;;;;;;12.38;9.15;;;;;;;3.88;33.34;102371.44;5030045;28;20064;-75
2023/03/01 08:36:37;;;;;;;16.13;10.57;;;;;;;3.74;33.14;102375.50;5036457;28;20036;-75
2023/03/01 08:39:06;;;;;;;15.90;10.30;;;;;;;3.73;33.61;102378.25;5049878;28;20094;-75
2023/03/01 08:41:34;;;;;;;14.70;10.05;;;;;;;3.71;33.56;102378.34;5050346;28;20742;-75
2023/03/01 08:44:02;;;;;;;12.80;9.02;;;;;;;3.65;33.52;102366.81;5053737;28;20045;-76
2023/03/01 08:46:33;;;;;;;13.75;10.30;;;;;;;3.55;33.39;102373.50;5052634;28;20396;-76
2023/03/01 08:49:04;;;;;;;13.32;9.38;;;;;;;3.50;33.55;102381.75;5055776;28;20461;-75
2023/03/01 08:51:36;;;;;;;14.77;11.00;;;;;;;3.38;33.45;102372.25;5053009;28;20040;-75
2023/03/01 08:54:04;;;;;;;13.23;9.67;;;;;;;3.37;33.86;102369.59;5031807;28;20045;-75
2023/03/01 08:56:32;;;;;;;13.95;9.15;;;;;;;3.41;33.83;102365.81;5052823;28;20067;-75
2023/03/01 08:59:00;;;;;;;14.40;9.75;;;;;;;3.34;33.69;102377.78;5048728;28;20492;-75
2023/03/01 09:01:28;;;;;;;13.65;10.00;;;;;;;3.34;33.76;102372.38;5053916;28;20139;-75
2023/03/01 09:03:58;;;;;;;14.02;10.02;;;;;;;3.35;33.81;102377.75;5046007;28;20041;-76
2023/03/01 09:06:25;;;;;;;13.43;9.23;;;;;;;3.37;33.68;102369.59;5032661;28;20052;-75
2023/03/01 09:08:54;;;;;;;12.27;8.85;;;;;;;3.44;34.07;102359.44;5048602;28;20488;-75
2023/03/01 09:11:23;;;;;;;12.70;8.52;;;;;;;3.48;33.93;102362.00;5054194;28;20492;-75
2023/03/01 09:13:51;;;;;;;12.20;8.55;;;;;;;3.54;33.93;102366.31;5061399;28;20036;-76
2023/03/01 09:16:21;;;;;;;10.48;9.07;;;;;;;3.58;33.98;102368.84;5062875;28;20068;-75
2023/03/01 09:18:51;;;;;;;10.77;8.15;;;;;;;3.66;34.09;102366.75;5051167;28;20595;-75
2023/03/01 09:21:22;;;;;;;11.75;8.43;;;;;;;3.72;33.84;102365.69;5038686;28;20563;-75
2023/03/01 09:24:06;;;;;;;13.60;7.72;;;;;;;3.76;33.61;102361.91;5030939;28;20055;-75
2023/03/01 09:26:34;;;;;;;10.45;7.93;;;;;;;3.84;33.87;102353.50;5036499;28;20065;-75
2023/03/01 09:29:02;;;;;;;11.15;8.18;;;;;;;3.86;33.77;102357.06;5049358;28;20416;-75
2023/03/01 09:31:30;;;;;;;10.25;8.57;;;;;;;3.94;33.80;102354.94;5042343;28;20044;-76
2023/03/01 09:33:57;;;;;;;10.77;7.40;;;;;;;4.00;33.68;102352.91;5049171;28;20059;-76
2023/03/01 09:36:27;;;;;;;10.10;7.53;;;;;;;4.07;33.28;102343.59;5035345;28;20083;-76
2023/03/01 09:38:54;;;;;;;12.63;8.23;;;;;;;4.12;33.36;102328.09;5030384;28;20055;-76
2023/03/01 09:41:38;;;;;;;11.27;7.32;;;;;;;4.16;31.69;102328.84;5033326;28;20408;-76
2023/03/01 09:44:14;;;;;;;11.40;7.78;;;;;;;4.22;32.89;102325.03;5048754;28;20049;-76
2023/03/01 09:46:45;;;;;;;11.27;7.78;;;;;;;4.28;33.21;102325.69;5044874;28;20068;-76
2023/03/01 09:49:18;;;;;;;12.43;8.95;;;;;;;4.30;32.81;102329.22;5030697;28;20099;-76
2023/03/01 09:52:01;;;;;;;13.25;9.07;;;;;;;4.32;31.68;102319.19;5050009;28;20049;-75
2023/03/01 09:54:29;;;;;;;12.95;9.45;;;;;;;4.38;33.09;102313.53;5046191;28;20069;-76
2023/03/01 09:57:14;;;;;;;12.77;8.93;;;;;;;4.44;31.76;102321.44;5049982;28;20072;-75
2023/03/01 09:59:56;;;;;;;11.27;7.88;;;;;;;4.53;32.15;102315.66;5048034;28;20045;-75
2023/03/01 10:02:31;;;;;;;9.93;7.53;;;;;;;4.57;32.52;102315.50;5049084;28;20044;-75
2023/03/01 10:05:14;;;;;;;10.35;7.80;;;;;;;4.64;31.57;102315.22;5045001;28;20045;-76
2023/03/01 10:07:51;;;;;;;11.70;8.38;;;;;;;4.63;31.58;102309.88;5026382;28;20045;-75
2023/03/01 10:10:28;;;;;;;10.55;7.60;;;;;;;4.73;32.13;102312.13;5059399;28;20075;-76
2023/03/01 10:12:57;;;;;;;10.52;7.53;;;;;;;4.78;32.82;102310.13;5067306;28;20036;-75
2023/03/01 10:15:35;;;;;;;9.73;7.35;;;;;;;4.87;32.08;102311.59;5049915;28;20448;-75
2023/03/01 10:18:10;;;;;;;10.68;7.25;;;;;;;4.92;31.99;102312.28;5031277;28;20045;-75
2023/03/01 10:20:46;;;;;;;11.00;7.45;;;;;;;4.96;31.79;102294.06;5040282;28;20059;-75
2023/03/01 10:23:15;;;;;;;11.15;7.35;;;;;;;5.01;31.90;102297.44;5048849;28;20045;-75
2023/03/01 10:25:57;;;;;;;11.32;6.60;;;;;;;5.07;31.37;102295.34;5030541;28;20405;-76
2023/03/01 10:28:29;;;;;;;11.65;8.13;;;;;;;5.03;31.45;102287.44;5035427;28;20535;-75
2023/03/01 10:30:59;;;;;;;11.43;8.00;;;;;;;5.01;31.30;102282.06;5044125;28;20048;-75
2023/03/01 10:33:32;;;;;;;9.55;7.50;;;;;;;5.07;31.08;102287.22;5042206;28;20567;-75
2023/03/01 10:36:00;;;;;;;13.88;8.02;;;;;;;5.09;31.54;102284.44;5047044;28;20092;-75
2023/03/01 10:38:32;;;;;;;12.18;7.18;;;;;;;5.13;30.69;102288.81;5042504;28;20086;-75
2023/03/01 10:41:05;;;;;;;11.25;7.38;;;;;;;5.13;31.61;102281.53;5047907;28;20059;-76
2023/03/01 10:43:45;;;;;;;10.65;7.57;;;;;;;5.17;30.27;102275.06;5039242;28;20084;-75
2023/03/01 10:46:27;;;;;;;11.32;7.53;;;;;;;5.19;30.32;102285.88;5044666;28;20068;-76
2023/03/01 10:49:14;;;;;;;10.63;6.20;;;;;;;5.16;29.20;102281.41;5045003;28;20044;-76
2023/03/01 10:51:44;;;;;;;11.70;8.63;;;;;;;5.16;30.99;102272.38;5031522;28;20560;-76
2023/03/01 10:54:20;;;;;;;10.88;7.65;;;;;;;5.21;30.06;102264.97;5055625;28;20041;-75
2023/03/01 10:56:50;;;;;;;11.50;7.20;;;;;;;5.24;31.13;102263.00;5045076;28;20575;-75
2023/03/01 10:59:27;;;;;;;11.00;7.45;;;;;;;5.27;29.59;102260.16;5039787;28;20033;-75
2023/03/01 11:02:17;;;;;;;10.57;7.43;;;;;;;5.31;30.23;102258.19;5058699;28;20044;-74
2023/03/01 11:04:59;;;;;;;10.55;6.97;;;;;;;5.33;30.26;102255.41;5033568;28;20045;-76
2023/03/01 11:07:27;;;;;;;11.43;7.85;;;;;;;5.33;31.04;102253.56;5035166;28;20048;-75
2023/03/01 11:09:56;;;;;;;10.73;7.78;;;;;;;5.40;30.77;102251.47;5037528;28;20052;-75
2023/03/01 11:12:25;;;;;;;9.57;7.18;;;;;;;5.42;31.00;102239.59;5038068;28;20048;-75
2023/03/01 11:14:55;;;;;;;11.25;8.23;;;;;;;5.42;30.62;102236.88;5053947;28;20049;-76
2023/03/01 11:17:28;;;;;;;11.50;8.70;;;;;;;5.41;30.22;102236.94;5052395;28;20056;-76
2023/03/01 11:20:16;;;;;;;13.38;9.30;;;;;;;5.40;29.38;102229.75;5042424;28;20077;-76
2023/03/01 11:22:48;;;;;;;11.65;8.30;;;;;;;5.45;30.15;102225.91;5033437;28;20072;-76
2023/03/01 11:25:20;;;;;;;10.88;7.70;;;;;;;5.52;30.36;102224.66;5054311;28;20511;-76
2023/03/01 11:27:48;;;;;;;10.25;7.22;;;;;;;5.55;30.72;102210.06;5046651;28;20412;-76
2023/03/01 11:30:21;;;;;;;13.57;8.52;;;;;;;5.54;30.38;102197.44;5059750;28;20045;-76
2023/03/01 11:32:55;;;;;;;11.75;8.10;;;;;;;5.57;30.26;102200.00;5055674;28;20099;-76
2023/03/01 11:35:27;;;;;;;11.68;8.02;;;;;;;5.60;30.25;102198.06;5047022;28;20124;-76
2023/03/01 11:38:17;;;;;;;11.05;7.32;;;;;;;5.68;29.69;102192.25;5037578;28;20045;-76
2023/03/01 11:40:51;;;;;;;10.93;8.48;;;;;;;5.70;30.25;102194.91;5027492;28;20072;-76
2023/03/01 11:43:28;;;;;;;12.43;8.55;;;;;;;5.71;29.97;102202.13;5057541;28;20483;-76